createdAt,value
2019-05-02T00:02:32.630Z,83.97
2019-05-02T00:05:37.494Z,84.12
2019-05-02T00:08:43.520Z,83.80
2019-05-02T00:11:58.626Z,84.12
2019-05-02T00:15:02.130Z,84.41
2019-05-02T00:18:04.056Z,84.65
2019-05-02T00:21:09.037Z,84.92
2019-05-02T00:24:17.668Z,84.75
2019-05-02T00:27:22.392Z,85.51
2019-05-02T00:30:30.072Z,85.75
2019-05-02T00:33:35.880Z,86.11
2019-05-02T00:36:59.979Z,86.40
2019-05-02T00:40:11.296Z,86.85
2019-05-02T00:43:18.093Z,86.95
2019-05-02T00:46:22.572Z,87.52
2019-05-02T00:49:30.974Z,87.63
2019-05-02T00:52:36.651Z,87.66
2019-05-02T00:55:41.138Z,87.36
2019-05-02T00:58:45.706Z,87.40
2019-05-02T01:02:07.333Z,87.17
2019-05-02T01:05:12.311Z,87.17
2019-05-02T01:08:16.704Z,87.17
2019-05-02T01:11:22.136Z,87.11
2019-05-02T01:14:31.691Z,87.03
2019-05-02T01:17:36.864Z,87.29
2019-05-02T01:20:41.304Z,87.55
2019-05-02T01:23:45.621Z,87.62
2019-05-02T01:27:14.137Z,88.04
2019-05-02T01:30:25.494Z,88.39
2019-05-02T01:33:50.903Z,88.15
2019-05-02T01:37:20.603Z,88.19
2019-05-02T01:40:20.546Z,88.46
2019-05-02T01:43:28.767Z,88.77
2019-05-02T01:46:33.318Z,89.26
2019-05-02T01:49:38.345Z,89.55
2019-05-02T01:52:42.697Z,89.09
2019-05-02T01:55:52.091Z,89.22
2019-05-02T01:58:57.836Z,89.72
2019-05-02T02:02:01.035Z,90.24
2019-05-02T02:05:06.494Z,90.26
2019-05-02T02:08:11.197Z,90.28
2019-05-02T02:11:16.912Z,90.65
2019-05-02T02:14:21.259Z,90.59
2019-05-02T02:17:33.381Z,90.66
2019-05-02T02:20:50.270Z,91.20
2019-05-02T02:24:07.602Z,91.58
2019-05-02T02:27:11.882Z,92.02
2019-05-02T02:30:17.750Z,91.95
2019-05-02T02:33:22.286Z,92.10
2019-05-02T02:36:34.852Z,92.46
2019-05-02T02:39:38.632Z,92.63
2019-05-02T02:42:43.204Z,92.63
2019-05-02T02:46:13.991Z,92.71
2019-05-02T02:49:24.018Z,92.57
2019-05-02T02:52:25.766Z,92.42
2019-05-02T02:55:30.158Z,92.24
2019-05-02T02:58:44.162Z,92.14
2019-05-02T03:01:40.694Z,92.03
2019-05-02T03:04:46.380Z,92.18
2019-05-02T03:07:50.867Z,92.29
2019-05-02T03:10:55.569Z,92.54
2019-05-02T03:14:09.960Z,92.83
2019-05-02T03:17:20.653Z,93.31
2019-05-02T03:20:20.495Z,93.72
2019-05-02T03:23:24.784Z,93.42
2019-05-02T03:26:29.058Z,93.36
2019-05-02T03:29:41.345Z,93.49
2019-05-02T03:33:02.715Z,93.64
2019-05-02T03:35:49.060Z,93.41
2019-05-02T03:38:53.935Z,93.07
2019-05-02T03:42:02.917Z,92.35
2019-05-02T03:45:05.293Z,91.52
2019-05-02T03:48:09.853Z,90.62
2019-05-02T03:51:21.450Z,89.73
2019-05-02T03:54:20.383Z,88.56
2019-05-02T03:57:32.896Z,87.03
2019-05-02T04:00:32.163Z,86.92
2019-05-02T04:03:40.852Z,86.78
2019-05-02T04:06:42.966Z,86.52
2019-05-02T04:09:47.282Z,86.55
2019-05-02T04:12:58.234Z,86.83
2019-05-02T04:15:59.096Z,86.76
2019-05-02T04:19:06.442Z,87.02
2019-05-02T04:22:13.938Z,86.61
2019-05-02T04:25:18.971Z,86.12
2019-05-02T04:28:24.563Z,85.68
2019-05-02T04:31:31.566Z,86.17
2019-05-02T04:34:35.067Z,86.14
2019-05-02T04:37:41.184Z,86.30
2019-05-02T04:40:47.263Z,86.29
2019-05-02T04:43:57.536Z,86.56
2019-05-02T04:47:02.723Z,86.92
2019-05-02T04:50:07.964Z,87.27
2019-05-02T04:53:10.031Z,87.28
2019-05-02T04:56:14.655Z,87.25
2019-05-02T04:59:22.719Z,87.30
2019-05-02T05:02:34.654Z,87.36
2019-05-02T05:05:31.619Z,86.93
2019-05-02T05:08:38.800Z,86.60
2019-05-02T05:11:41.986Z,86.37
2019-05-02T05:14:47.460Z,86.51
2019-05-02T05:17:51.804Z,87.01
2019-05-02T05:20:57.741Z,87.53
2019-05-02T05:24:20.978Z,87.40
2019-05-02T05:27:27.392Z,87.83
2019-05-02T05:30:31.456Z,88.48
2019-05-02T05:33:37.703Z,88.58
2019-05-02T05:36:41.927Z,88.19
2019-05-02T05:39:48.697Z,88.47
2019-05-02T05:42:52.317Z,88.28
2019-05-02T05:46:09.356Z,87.96
2019-05-02T05:49:02.629Z,87.58
2019-05-02T05:52:08.048Z,87.31
2019-05-02T05:55:17.137Z,87.59
2019-05-02T05:58:18.896Z,87.52
2019-05-02T06:01:26.001Z,87.28
2019-05-02T06:04:38.917Z,88.55
2019-05-02T06:07:45.058Z,89.60
2019-05-02T06:10:49.938Z,90.15
2019-05-02T06:13:54.778Z,91.90
2019-05-02T06:16:59.582Z,93.25
2019-05-02T06:20:06.674Z,94.20
2019-05-02T06:23:16.539Z,94.96
2019-05-02T06:26:21.231Z,95.12
2019-05-02T06:29:28.254Z,94.85
2019-05-02T06:32:33.205Z,94.45
2019-05-02T06:35:38.306Z,93.44
2019-05-02T06:38:45.972Z,92.46
2019-05-02T06:41:52.190Z,91.46
2019-05-02T06:45:01.272Z,91.19
2019-05-02T06:48:05.723Z,91.33
2019-05-02T06:51:19.115Z,91.62
2019-05-02T06:54:25.271Z,92.00
2019-05-02T06:57:32.353Z,92.90
2019-05-02T07:00:56.371Z,94.16
2019-05-02T07:03:47.565Z,95.00
2019-05-02T07:06:58.586Z,95.74
2019-05-02T07:09:58.300Z,96.53
2019-05-02T07:13:10.869Z,96.16
2019-05-02T07:16:17.056Z,95.54
2019-05-02T07:19:32.502Z,95.25
2019-05-02T07:22:38.914Z,94.64
2019-05-02T07:25:43.943Z,93.95
2019-05-02T07:28:48.492Z,92.99
2019-05-02T07:31:53.596Z,92.57
2019-05-02T07:34:58.169Z,92.80
2019-05-02T07:38:02.605Z,92.26
2019-05-02T07:41:07.235Z,91.02
2019-05-02T07:44:11.651Z,91.26
2019-05-02T07:47:15.949Z,91.40
2019-05-02T07:50:26.379Z,92.04
2019-05-02T07:53:31.029Z,90.76
2019-05-02T07:56:35.392Z,87.87
2019-05-02T07:59:39.740Z,86.53
2019-05-02T08:02:44.077Z,84.06
2019-05-02T08:05:48.376Z,84.28
2019-05-02T08:08:52.959Z,85.08
2019-05-02T08:11:57.608Z,86.38
2019-05-02T08:15:02.160Z,86.53
2019-05-02T08:18:06.450Z,86.60
2019-05-02T08:21:10.752Z,86.08
2019-05-02T08:24:15.048Z,84.64
2019-05-02T08:27:41.104Z,84.18
2019-05-02T08:30:51.146Z,83.76
2019-05-02T08:33:55.501Z,83.96
2019-05-02T08:37:03.242Z,84.11
2019-05-02T08:40:10.899Z,83.10
2019-05-02T08:43:16.482Z,81.78
2019-05-02T08:46:20.746Z,81.34
2019-05-02T08:49:25.140Z,81.39
2019-05-02T08:52:29.499Z,80.28
2019-05-02T08:55:34.116Z,79.74
2019-05-02T08:58:38.438Z,79.31
2019-05-02T09:01:44.743Z,78.68
2019-05-02T09:04:58.172Z,78.74
2019-05-02T09:07:55.209Z,79.23
2019-05-02T09:10:59.551Z,79.93
2019-05-02T09:14:04.037Z,79.02
2019-05-02T09:17:15.702Z,79.36
2019-05-02T09:20:20.624Z,78.61
2019-05-02T09:23:27.367Z,79.66
2019-05-02T09:26:36.107Z,79.27
2019-05-02T09:29:37.423Z,79.30
2019-05-02T09:32:42.342Z,79.59
2019-05-02T09:35:46.857Z,79.79
2019-05-02T09:38:55.994Z,78.73
2019-05-02T09:42:02.160Z,78.78
2019-05-02T09:45:08.412Z,79.30
2019-05-02T09:48:16.911Z,79.83
2019-05-02T09:51:25.227Z,80.99
2019-05-02T09:54:29.674Z,81.84
2019-05-02T09:57:37.129Z,82.20
2019-05-02T10:00:52.975Z,82.33
2019-05-02T10:03:57.277Z,82.44
2019-05-02T10:07:02.563Z,84.22
2019-05-02T10:10:08.448Z,86.40
2019-05-02T10:13:13.635Z,88.20
2019-05-02T10:16:23.510Z,90.77
2019-05-02T10:19:26.189Z,90.77
2019-05-02T10:22:38.592Z,91.43
2019-05-02T10:25:38.979Z,91.86
2019-05-02T10:28:49.401Z,92.93
2019-05-02T10:31:49.289Z,93.60
2019-05-02T10:34:56.759Z,94.34
2019-05-02T10:38:00.063Z,93.82
2019-05-02T10:41:06.095Z,94.31
2019-05-02T10:44:12.700Z,93.70
2019-05-02T10:47:16.894Z,94.10
2019-05-02T10:50:28.767Z,94.25
2019-05-02T10:53:39.441Z,94.48
2019-05-02T10:56:43.809Z,94.34
2019-05-02T10:59:48.465Z,93.44
2019-05-02T11:03:07.499Z,92.78
2019-05-02T11:06:12.580Z,92.32
2019-05-02T11:09:22.479Z,92.33
2019-05-02T11:12:47.110Z,91.13
2019-05-02T11:16:18.828Z,90.23
2019-05-02T11:19:28.988Z,88.74
2019-05-02T11:22:33.410Z,87.25
2019-05-02T11:25:42.115Z,85.16
2019-05-02T11:28:46.562Z,83.45
2019-05-02T11:31:52.121Z,82.98
2019-05-02T11:34:56.538Z,80.85
2019-05-02T11:38:02.523Z,81.17
2019-05-02T11:41:06.910Z,79.28
2019-05-02T11:44:12.125Z,80.96
2019-05-02T11:47:17.264Z,80.19
2019-05-02T11:50:26.652Z,79.69
2019-05-02T11:53:29.562Z,79.24
2019-05-02T11:56:34.054Z,79.09
2019-05-02T11:59:38.376Z,78.85
2019-05-02T12:02:59.747Z,79.20
2019-05-02T12:06:06.647Z,79.08
2019-05-02T12:09:14.120Z,78.60
2019-05-02T12:12:18.415Z,77.85
2019-05-02T12:15:26.291Z,77.74
2019-05-02T12:18:32.484Z,77.49
2019-05-02T12:21:39.169Z,76.89
2019-05-02T12:24:45.350Z,76.89
2019-05-02T12:27:49.009Z,76.76
2019-05-02T12:30:53.457Z,76.79
2019-05-02T12:33:59.161Z,76.14
2019-05-02T12:37:03.491Z,76.32
2019-05-02T12:40:12.229Z,76.33
2019-05-02T12:43:17.129Z,76.43
2019-05-02T12:46:22.209Z,75.41
2019-05-02T12:49:27.956Z,74.11
2019-05-02T12:52:32.389Z,73.17
2019-05-02T12:55:36.962Z,72.92
2019-05-02T12:58:42.149Z,70.64
2019-05-02T13:01:46.937Z,68.92
2019-05-02T13:04:52.737Z,69.28
2019-05-02T13:07:57.200Z,69.19
2019-05-02T13:11:08.373Z,68.82
2019-05-02T13:14:19.598Z,68.15
2019-05-02T13:17:23.868Z,68.60
2019-05-02T13:20:29.347Z,69.47
2019-05-02T13:23:45.412Z,70.56
2019-05-02T13:26:51.956Z,70.91
2019-05-02T13:29:56.082Z,71.26
2019-05-02T13:33:03.465Z,70.28
2019-05-02T13:36:09.342Z,70.58
2019-05-02T13:39:39.701Z,68.38
2019-05-02T13:42:44.535Z,67.82
2019-05-02T13:45:59.399Z,66.58
2019-05-02T13:49:03.704Z,67.82
2019-05-02T13:52:09.484Z,68.33
2019-05-02T13:55:15.627Z,67.70
2019-05-02T13:58:21.650Z,68.07
2019-05-02T14:01:26.231Z,68.10
2019-05-02T14:04:32.497Z,70.42
2019-05-02T14:07:36.639Z,72.39
2019-05-02T14:10:43.243Z,72.87
2019-05-02T14:13:47.628Z,72.74
2019-05-02T14:16:53.047Z,72.55
2019-05-02T14:20:08.616Z,72.55
2019-05-02T14:23:03.420Z,72.00
2019-05-02T14:26:07.723Z,72.42
2019-05-02T14:29:16.128Z,71.61
2019-05-02T14:32:23.351Z,70.41
2019-05-02T14:35:29.493Z,71.27
2019-05-02T14:38:33.777Z,71.01
2019-05-02T14:41:41.952Z,68.42
2019-05-02T14:45:04.043Z,68.32
2019-05-02T14:47:57.219Z,67.69
2019-05-02T14:50:56.234Z,68.37
2019-05-02T14:54:08.139Z,67.74
2019-05-02T14:57:27.164Z,67.01
2019-05-02T15:00:39.458Z,67.65
2019-05-02T15:03:39.149Z,70.35
2019-05-02T15:06:47.488Z,70.89
2019-05-02T15:09:52.537Z,71.94
2019-05-02T15:12:59.767Z,73.42
2019-05-02T15:16:02.708Z,72.45
2019-05-02T15:19:06.997Z,72.37
2019-05-02T15:22:12.470Z,71.47
2019-05-02T15:25:17.939Z,71.51
2019-05-02T15:28:22.981Z,70.78
2019-05-02T15:31:33.778Z,69.33
2019-05-02T15:34:54.346Z,67.80
2019-05-02T15:38:02.636Z,67.72
2019-05-02T15:41:07.818Z,67.06
2019-05-02T15:44:12.536Z,65.56
2019-05-02T15:47:17.086Z,65.00
2019-05-02T15:50:25.537Z,64.66
2019-05-02T15:53:44.654Z,64.61
2019-05-02T15:56:59.954Z,64.74
2019-05-02T15:59:58.491Z,65.44
2019-05-02T16:03:04.374Z,67.28
2019-05-02T16:06:08.983Z,67.40
2019-05-02T16:09:13.492Z,66.93
2019-05-02T16:12:17.815Z,63.57
2019-05-02T16:15:26.327Z,62.94
2019-05-02T16:18:28.197Z,62.94
2019-05-02T16:21:38.569Z,59.83
2019-05-02T16:24:43.889Z,58.43
2019-05-02T16:27:49.275Z,58.43
2019-05-02T16:30:55.710Z,56.84
2019-05-02T16:34:00.000Z,56.84
2019-05-02T16:37:15.010Z,56.49
2019-05-02T16:40:22.043Z,56.54
2019-05-02T16:43:25.308Z,58.00
2019-05-02T16:46:29.616Z,58.40
2019-05-02T16:49:33.916Z,59.26
2019-05-02T16:52:43.658Z,58.84
2019-05-02T16:55:44.335Z,58.97
2019-05-02T16:58:48.735Z,59.49
2019-05-02T17:01:54.602Z,60.68
2019-05-02T17:05:00.185Z,61.23
2019-05-02T17:08:24.253Z,61.11
2019-05-02T17:11:35.986Z,60.71
2019-05-02T17:14:43.492Z,58.80
2019-05-02T17:17:48.027Z,58.80
2019-05-02T17:20:56.654Z,56.54
2019-05-02T17:23:58.572Z,56.59
2019-05-02T17:27:03.123Z,57.89
2019-05-02T17:30:07.773Z,58.86
2019-05-02T17:33:16.129Z,60.49
2019-05-02T17:36:21.524Z,60.87
2019-05-02T17:39:24.137Z,60.50
2019-05-02T17:42:28.399Z,61.28
2019-05-02T17:45:33.406Z,61.21
2019-05-02T17:48:39.311Z,61.01
2019-05-02T17:52:05.693Z,60.85
2019-05-02T17:55:07.571Z,62.31
2019-05-02T17:58:12.947Z,63.69
2019-05-02T18:01:26.391Z,63.90
2019-05-02T18:04:29.036Z,64.26
2019-05-02T18:07:36.047Z,65.31
2019-05-02T18:10:39.504Z,62.96
2019-05-02T18:13:44.069Z,61.53
2019-05-02T18:16:51.971Z,61.54
2019-05-02T18:19:56.606Z,62.47
2019-05-02T18:23:03.606Z,62.85
2019-05-02T18:26:08.786Z,62.51
2019-05-02T18:29:15.469Z,62.14
2019-05-02T18:32:24.545Z,63.06
2019-05-02T18:35:25.365Z,63.18
2019-05-02T18:38:29.669Z,63.44
2019-05-02T18:41:37.441Z,63.45
2019-05-02T18:44:41.944Z,63.92
2019-05-02T18:47:46.546Z,64.57
2019-05-02T18:50:52.695Z,66.40
2019-05-02T18:53:57.995Z,67.64
2019-05-02T18:57:03.229Z,67.67
2019-05-02T19:00:07.677Z,65.63
2019-05-02T19:03:17.100Z,65.96
2019-05-02T19:06:21.992Z,65.60
2019-05-02T19:09:30.165Z,65.43
2019-05-02T19:12:32.911Z,65.50
2019-05-02T19:15:39.737Z,66.00
2019-05-02T19:18:43.570Z,66.22
2019-05-02T19:21:47.957Z,66.62
2019-05-02T19:24:52.449Z,66.58
2019-05-02T19:28:02.941Z,66.91
2019-05-02T19:31:10.413Z,67.42
2019-05-02T19:34:22.900Z,67.94
2019-05-02T19:37:26.852Z,68.31
2019-05-02T19:40:31.827Z,68.37
2019-05-02T19:43:40.332Z,67.50
2019-05-02T19:46:42.409Z,66.36
2019-05-02T19:49:47.295Z,65.51
2019-05-02T19:53:01.227Z,65.71
2019-05-02T19:56:01.388Z,64.39
2019-05-02T19:59:05.201Z,63.66
2019-05-02T20:02:09.616Z,64.38
2019-05-02T20:05:16.467Z,63.77
2019-05-02T20:08:24.071Z,64.54
2019-05-02T20:11:28.089Z,64.58
2019-05-02T20:14:32.403Z,64.92
2019-05-02T20:17:36.757Z,65.20
2019-05-02T20:20:54.182Z,65.80
2019-05-02T20:24:01.332Z,66.17
2019-05-02T20:27:04.925Z,66.42
2019-05-02T20:30:09.559Z,66.59
2019-05-02T20:33:13.861Z,66.59
2019-05-02T20:36:18.223Z,67.26
2019-05-02T20:39:23.013Z,66.95
2019-05-02T20:42:27.341Z,67.37
2019-05-02T20:45:32.272Z,67.37
2019-05-02T20:48:36.732Z,67.68
2019-05-02T20:51:42.380Z,68.26
2019-05-02T20:54:46.835Z,68.29
2019-05-02T20:57:52.690Z,68.65
2019-05-02T21:01:06.206Z,68.78
2019-05-02T21:04:03.256Z,68.62
2019-05-02T21:07:29.683Z,69.12
2019-05-02T21:10:37.370Z,69.38
2019-05-02T21:13:41.887Z,69.73
2019-05-02T21:16:46.318Z,69.86
2019-05-02T21:19:50.620Z,70.44
2019-05-02T21:22:54.930Z,70.89
2019-05-02T21:25:59.238Z,70.92
2019-05-02T21:29:03.524Z,71.14
2019-05-02T21:32:07.846Z,71.18
2019-05-02T21:35:12.503Z,71.31
2019-05-02T21:38:16.919Z,71.74
2019-05-02T21:41:22.188Z,71.13
2019-05-02T21:44:26.591Z,71.87
2019-05-02T21:47:31.852Z,71.88
2019-05-02T21:50:47.789Z,72.07
2019-05-02T21:54:09.451Z,72.19
2019-05-02T21:57:16.330Z,71.77
2019-05-02T22:00:46.709Z,71.92
2019-05-02T22:03:51.025Z,71.95
2019-05-02T22:06:55.343Z,72.39
2019-05-02T22:10:00.515Z,72.46
2019-05-02T22:13:04.814Z,72.59
2019-05-02T22:16:09.140Z,72.44
2019-05-02T22:19:13.452Z,72.52
2019-05-02T22:22:17.756Z,72.68
2019-05-02T22:25:22.263Z,72.88
2019-05-02T22:28:26.534Z,73.17
2019-05-02T22:31:32.390Z,73.28
2019-05-02T22:34:36.824Z,73.38
2019-05-02T22:37:42.766Z,73.52
2019-05-02T22:40:49.506Z,73.84
2019-05-02T22:43:53.816Z,74.20
2019-05-02T22:46:58.196Z,74.47
2019-05-02T22:50:02.498Z,74.34
2019-05-02T22:53:06.791Z,74.33
2019-05-02T22:56:11.769Z,74.53
2019-05-02T22:59:17.125Z,74.33
2019-05-02T23:02:21.929Z,74.08
2019-05-02T23:05:26.364Z,73.43
2019-05-02T23:08:30.683Z,73.48
2019-05-02T23:11:35.010Z,73.39
2019-05-02T23:14:39.301Z,73.04
2019-05-02T23:17:43.591Z,73.06
2019-05-02T23:20:47.895Z,72.86
2019-05-02T23:23:52.399Z,72.70
2019-05-02T23:27:13.166Z,72.98
2019-05-02T23:30:22.414Z,73.28
2019-05-02T23:33:29.195Z,73.59
2019-05-02T23:36:33.603Z,73.58
2019-05-02T23:39:37.891Z,73.90
2019-05-02T23:42:42.221Z,73.76
2019-05-02T23:45:46.547Z,74.09
2019-05-02T23:48:52.642Z,74.15
2019-05-02T23:51:56.983Z,74.45
2019-05-02T23:55:03.008Z,74.44
2019-05-02T23:58:07.356Z,74.43
